Time;durP1;ratioP1;P1;durP2;ratioP2;P2;SDS_P1;SDS_P2;PMS_P1;PMS_P2;Temp;Humidity;BMP_temperature;BMP_pressure;BME280_temperature;BME280_humidity;BME280_pressure;Samples;Min_cycle;Max_cycle;Signal;HPM_P1;HPM_P2
2022/01/09 00:00:45;;;;;;;1.97;1.97;;;;;;;3.74;90.20;98467.88;5115046;28;20199;-74
2022/01/09 00:03:12;;;;;;;1.47;1.47;;;;;;;3.72;90.46;98455.94;5115457;28;20603;-74
2022/01/09 00:05:39;;;;;;;1.20;1.20;;;;;;;3.71;90.67;98459.41;5115669;28;20269;-74
2022/01/09 00:08:06;;;;;;;1.20;1.20;;;;;;;3.81;90.20;98451.13;5115728;28;20191;-73
2022/01/09 00:10:33;;;;;;;1.43;1.43;;;;;;;3.66;90.96;98445.88;5115680;28;20193;-73
2022/01/09 00:13:00;;;;;;;1.53;1.53;;;;;;;3.71;91.03;98449.88;5115908;28;20183;-73
2022/01/09 00:15:27;;;;;;;1.80;1.80;;;;;;;3.73;91.08;98436.91;5115209;28;20259;-75
2022/01/09 00:17:53;;;;;;;1.57;1.57;;;;;;;3.69;91.62;98435.34;5115548;28;20196;-73
2022/01/09 00:20:20;;;;;;;1.37;1.37;;;;;;;3.54;92.12;98429.19;5115483;28;20271;-73
2022/01/09 00:22:49;;;;;;;1.60;1.60;;;;;;;3.62;91.86;98427.06;5115602;28;20675;-73
2022/01/09 00:25:19;;;;;;;1.87;1.87;;;;;;;3.53;92.12;98423.19;5115407;28;20197;-74
2022/01/09 00:27:46;;;;;;;2.00;1.40;;;;;;;3.63;91.63;98422.72;5115061;28;20189;-73
2022/01/09 00:30:15;;;;;;;1.60;1.60;;;;;;;3.56;92.10;98424.78;5096779;28;20197;-73
2022/01/09 00:32:42;;;;;;;1.23;1.23;;;;;;;3.52;92.27;98425.88;5115233;28;20193;-73
2022/01/09 00:35:09;;;;;;;1.33;1.33;;;;;;;3.47;92.56;98414.91;5115443;28;20182;-73
2022/01/09 00:37:36;;;;;;;1.30;1.30;;;;;;;3.41;92.99;98415.19;5114775;28;20209;-74
2022/01/09 00:40:05;;;;;;;1.50;1.50;;;;;;;3.51;92.56;98417.25;5114807;28;20190;-74
2022/01/09 00:42:31;;;;;;;1.50;1.50;;;;;;;3.63;92.71;98415.81;5114678;28;20264;-73
2022/01/09 00:44:58;;;;;;;1.43;1.43;;;;;;;3.55;92.57;98415.34;5114733;28;20186;-73
2022/01/09 00:47:25;;;;;;;1.43;1.43;;;;;;;3.50;92.66;98418.19;5096874;28;20686;-74
2022/01/09 00:49:51;;;;;;;1.57;1.57;;;;;;;3.50;92.99;98413.00;5114638;28;20186;-73
2022/01/09 00:52:18;;;;;;;1.30;1.30;;;;;;;3.59;92.85;98409.13;5114591;28;20183;-73
2022/01/09 00:54:44;;;;;;;1.80;1.80;;;;;;;3.53;92.87;98409.44;5114755;28;20195;-73
2022/01/09 00:57:11;;;;;;;1.90;1.90;;;;;;;3.59;92.52;98417.72;5114397;28;20230;-74
2022/01/09 00:59:38;;;;;;;1.83;1.83;;;;;;;3.60;92.62;98418.56;5114433;28;20676;-74
2022/01/09 01:02:04;;;;;;;1.67;1.67;;;;;;;3.50;93.29;98409.56;5114837;28;20254;-73
2022/01/09 01:04:32;;;;;;;1.93;1.93;;;;;;;3.47;93.80;98414.91;5114323;28;20192;-73
2022/01/09 01:06:59;;;;;;;1.90;1.90;;;;;;;3.46;94.07;98410.63;5114357;28;20213;-74
2022/01/09 01:09:30;;;;;;;2.13;2.13;;;;;;;3.48;93.82;98412.22;5114259;28;20672;-74
2022/01/09 01:11:58;;;;;;;2.03;2.03;;;;;;;3.56;93.80;98417.03;5114037;28;20522;-74
2022/01/09 01:14:26;;;;;;;1.80;1.80;;;;;;;3.50;93.84;98412.16;5114195;28;20594;-73
2022/01/09 01:16:54;;;;;;;1.43;1.43;;;;;;;3.61;93.34;98409.88;5114385;28;20558;-74
2022/01/09 01:19:21;;;;;;;1.87;1.87;;;;;;;3.62;93.46;98406.38;5114167;28;20717;-73
2022/01/09 01:21:47;;;;;;;1.97;1.97;;;;;;;3.56;93.99;98401.50;5114214;28;20580;-73
2022/01/09 01:24:14;;;;;;;2.27;1.60;;;;;;;3.65;93.89;98405.41;5114297;28;20253;-73
2022/01/09 01:26:41;;;;;;;1.60;1.60;;;;;;;3.68;93.73;98410.41;5113949;28;20721;-74
2022/01/09 01:29:07;;;;;;;1.80;1.80;;;;;;;3.59;94.21;98407.38;5113999;28;20185;-74
2022/01/09 01:31:34;;;;;;;1.83;1.73;;;;;;;3.65;93.91;98413.16;5113926;28;20195;-74
2022/01/09 01:34:00;;;;;;;1.90;1.80;;;;;;;3.65;94.04;98410.56;5113883;28;20195;-73
2022/01/09 01:36:27;;;;;;;1.83;1.80;;;;;;;3.65;94.19;98411.41;5113850;28;20208;-74
2022/01/09 01:38:53;;;;;;;1.50;1.50;;;;;;;3.56;94.48;98415.25;5113840;28;20186;-74
2022/01/09 01:41:20;;;;;;;1.57;1.57;;;;;;;3.51;95.02;98417.25;5114385;28;20185;-74
2022/01/09 01:43:46;;;;;;;1.30;1.30;;;;;;;3.53;94.86;98424.94;5113764;28;20197;-73
2022/01/09 01:46:13;;;;;;;1.70;1.70;;;;;;;3.70;94.31;98418.91;5113705;28;20286;-75
2022/01/09 01:48:39;;;;;;;1.67;1.67;;;;;;;3.61;94.57;98430.56;5113775;28;20193;-75
2022/01/09 01:51:06;;;;;;;1.57;1.57;;;;;;;3.71;94.46;98425.75;5113727;28;20683;-75
2022/01/09 01:53:32;;;;;;;1.60;1.60;;;;;;;3.53;95.02;98425.78;5113951;28;20187;-74
2022/01/09 01:56:01;;;;;;;1.20;1.20;;;;;;;3.65;94.87;98426.09;5114472;28;20237;-75
2022/01/09 01:58:28;;;;;;;1.50;1.50;;;;;;;3.72;94.93;98432.63;5113958;28;20188;-74
2022/01/09 02:00:54;;;;;;;1.53;1.53;;;;;;;3.66;95.10;98431.19;5113867;28;20547;-74
2022/01/09 02:03:21;;;;;;;1.97;1.97;;;;;;;3.74;94.77;98431.63;5114064;28;20216;-74
2022/01/09 02:05:48;;;;;;;1.53;1.53;;;;;;;3.67;95.19;98439.78;5113515;28;20259;-75
2022/01/09 02:08:14;;;;;;;1.30;1.30;;;;;;;3.76;95.14;98441.91;5113605;28;20195;-74
2022/01/09 02:10:44;;;;;;;1.40;1.40;;;;;;;3.86;94.93;98445.72;5113892;28;20611;-75
2022/01/09 02:13:11;;;;;;;2.33;1.30;;;;;;;3.78;95.09;98458.19;5114035;28;20192;-75
2022/01/09 02:15:45;;;;;;;1.10;1.10;;;;;;;3.78;95.25;98451.25;5113677;28;20716;-75
2022/01/09 02:18:15;;;;;;;1.30;1.30;;;;;;;3.71;95.67;98456.81;5113793;28;20180;-75
2022/01/09 02:20:41;;;;;;;1.30;1.30;;;;;;;3.85;95.72;98465.56;5113437;28;20653;-75
2022/01/09 02:23:10;;;;;;;1.40;1.40;;;;;;;3.93;95.48;98472.97;5114676;28;20208;-75
2022/01/09 02:25:39;;;;;;;1.40;1.40;;;;;;;3.86;95.74;98489.72;5117395;28;20208;-76
2022/01/09 02:28:07;;;;;;;1.60;1.50;;;;;;;3.92;95.72;98491.13;5117379;28;20279;-75
2022/01/09 02:30:34;;;;;;;1.87;1.87;;;;;;;3.81;96.28;98500.28;5117630;28;20593;-75
2022/01/09 02:33:03;;;;;;;2.30;2.30;;;;;;;3.88;96.43;98505.16;5117298;28;20188;-76
2022/01/09 02:35:31;;;;;;;2.33;2.33;;;;;;;3.93;96.42;98513.53;5117453;28;20279;-76
2022/01/09 02:37:58;;;;;;;1.57;1.57;;;;;;;3.85;96.41;98519.91;5117207;28;20187;-75
2022/01/09 02:40:24;;;;;;;1.83;1.83;;;;;;;3.86;96.90;98513.03;5117180;28;20191;-75
2022/01/09 02:42:52;;;;;;;1.63;1.63;;;;;;;3.90;97.32;98524.88;5117016;28;20208;-75
2022/01/09 02:45:22;;;;;;;2.00;1.90;;;;;;;3.94;97.16;98526.41;5116998;28;20588;-75
2022/01/09 02:47:50;;;;;;;2.17;2.17;;;;;;;3.91;97.40;98526.53;5117012;28;20245;-75
2022/01/09 02:52:54;;;;;;;3.57;3.37;;;;;;;4.01;96.90;98538.13;5117246;28;20170;-75
2022/01/09 02:55:22;;;;;;;2.83;2.73;;;;;;;3.94;96.63;98551.47;5117118;28;20690;-76
2022/01/09 02:57:53;;;;;;;3.10;3.10;;;;;;;3.90;97.04;98550.75;5116838;28;20556;-75
2022/01/09 03:00:25;;;;;;;3.53;3.43;;;;;;;3.95;96.65;98556.56;5117081;28;20176;-76
2022/01/09 03:02:52;;;;;;;3.00;3.00;;;;;;;3.89;96.71;98551.69;5117235;28;20196;-75
2022/01/09 03:05:19;;;;;;;4.57;3.87;;;;;;;3.89;96.67;98559.44;5116868;28;20182;-76
2022/01/09 03:07:46;;;;;;;4.00;3.90;;;;;;;3.85;97.14;98563.09;5098860;28;20584;-75
2022/01/09 03:10:14;;;;;;;4.53;4.23;;;;;;;3.85;97.07;98568.25;5117124;28;20208;-75
2022/01/09 03:12:41;;;;;;;5.73;5.33;;;;;;;3.82;97.12;98581.38;5116514;28;20234;-75
2022/01/09 03:15:08;;;;;;;4.47;4.37;;;;;;;3.88;97.09;98588.00;5116484;28;20188;-75
2022/01/09 03:17:35;;;;;;;5.60;5.40;;;;;;;3.89;97.34;98606.03;5116620;28;20211;-75
2022/01/09 03:20:05;;;;;;;4.90;4.80;;;;;;;3.93;97.75;98599.81;5116308;28;20206;-76
2022/01/09 03:22:31;;;;;;;4.40;4.20;;;;;;;3.97;97.82;98608.25;5116557;28;20196;-76
2022/01/09 03:24:58;;;;;;;4.20;4.07;;;;;;;3.99;97.83;98602.09;5116824;28;20191;-76
2022/01/09 03:27:24;;;;;;;3.00;3.00;;;;;;;4.01;97.51;98604.63;5116173;28;20206;-76
2022/01/09 03:29:51;;;;;;;3.07;2.97;;;;;;;4.02;97.48;98612.31;5116186;28;20277;-76
2022/01/09 03:32:17;;;;;;;2.30;2.30;;;;;;;4.06;97.24;98633.69;5116528;28;20208;-75
2022/01/09 03:34:44;;;;;;;2.63;2.63;;;;;;;4.06;97.24;98639.72;5115181;28;20199;-76
2022/01/09 03:37:11;;;;;;;2.10;2.10;;;;;;;4.07;96.76;98656.94;5116231;28;20250;-75
2022/01/09 03:39:38;;;;;;;2.43;2.03;;;;;;;4.10;96.89;98653.38;5116827;28;20235;-76
2022/01/09 03:42:05;;;;;;;2.07;2.07;;;;;;;4.07;96.86;98658.66;5098017;28;20197;-75
2022/01/09 03:44:31;;;;;;;1.70;1.70;;;;;;;4.08;96.40;98658.63;5116155;28;20200;-75
2022/01/09 03:46:58;;;;;;;1.70;1.70;;;;;;;4.08;96.86;98678.50;5097563;28;20215;-75
2022/01/09 03:49:25;;;;;;;1.27;1.27;;;;;;;4.08;96.74;98670.72;5115868;28;20542;-76
2022/01/09 03:51:53;;;;;;;1.70;1.70;;;;;;;4.07;96.85;98682.84;5115817;28;20192;-75
2022/01/09 03:54:21;;;;;;;2.07;1.97;;;;;;;4.06;96.78;98691.50;5116052;28;20184;-76
2022/01/09 03:56:49;;;;;;;1.90;1.53;;;;;;;4.09;97.20;98708.66;5115633;28;20204;-75
2022/01/09 03:59:17;;;;;;;2.20;1.20;;;;;;;4.09;96.51;98706.91;5115695;28;20171;-75
2022/01/09 04:01:44;;;;;;;1.30;1.30;;;;;;;4.11;96.51;98704.25;5115608;28;20191;-75
2022/01/09 04:04:11;;;;;;;1.40;1.37;;;;;;;4.09;96.51;98712.09;5115773;28;20251;-74
2022/01/09 04:06:45;;;;;;;5.07;1.20;;;;;;;4.10;96.32;98713.75;5115629;28;20194;-75
2022/01/09 04:09:20;;;;;;;3.50;1.60;;;;;;;4.12;96.45;98724.88;5116028;28;20176;-75
2022/01/09 04:11:48;;;;;;;2.10;1.60;;;;;;;4.08;96.63;98733.72;5115994;28;20180;-75
2022/01/09 04:14:15;;;;;;;2.57;1.70;;;;;;;4.13;96.64;98742.09;5115373;28;20244;-75
2022/01/09 04:16:42;;;;;;;5.57;1.40;;;;;;;4.13;96.64;98746.44;5115758;28;20608;-75
2022/01/09 04:19:13;;;;;;;1.47;1.40;;;;;;;4.12;96.73;98755.94;5115272;28;20192;-76
2022/01/09 04:21:41;;;;;;;1.73;1.33;;;;;;;4.17;96.93;98767.88;5115229;28;20642;-76
2022/01/09 04:24:09;;;;;;;1.87;1.77;;;;;;;4.22;96.75;98779.69;5115459;28;20219;-76
2022/01/09 04:26:36;;;;;;;4.43;1.93;;;;;;;4.18;97.29;98769.53;5114982;28;20212;-76
2022/01/09 04:29:04;;;;;;;1.50;1.50;;;;;;;4.18;97.38;98778.16;5115036;28;20198;-76
2022/01/09 04:31:31;;;;;;;2.17;2.13;;;;;;;4.25;96.96;98776.09;5114937;28;20353;-75
2022/01/09 04:33:58;;;;;;;5.10;1.97;;;;;;;4.29;97.21;98785.44;5115471;28;20179;-75
2022/01/09 04:36:25;;;;;;;1.83;1.80;;;;;;;4.34;97.05;98798.97;5114831;28;20273;-75
2022/01/09 04:38:52;;;;;;;6.07;3.23;;;;;;;4.35;97.10;98805.84;5115162;28;20187;-75
2022/01/09 04:41:19;;;;;;;9.23;3.40;;;;;;;4.40;97.32;98817.66;5114877;28;20184;-75
2022/01/09 04:43:46;;;;;;;7.03;4.27;;;;;;;4.44;97.31;98823.56;5114960;28;20200;-75
2022/01/09 04:46:19;;;;;;;15.00;4.37;;;;;;;4.48;97.13;98817.31;5096504;28;20693;-76
2022/01/09 04:48:47;;;;;;;9.50;3.97;;;;;;;4.56;97.15;98835.09;5115216;28;20629;-76
2022/01/09 04:51:15;;;;;;;7.73;3.57;;;;;;;4.63;96.96;98832.13;5114893;28;20199;-75
2022/01/09 04:53:41;;;;;;;11.57;4.00;;;;;;;4.66;97.11;98831.16;5114572;28;20189;-76
2022/01/09 04:56:08;;;;;;;23.17;4.67;;;;;;;4.76;97.00;98839.34;5114665;28;20697;-75
2022/01/09 04:58:34;;;;;;;13.03;3.63;;;;;;;4.78;97.01;98860.84;5114486;28;20192;-75
2022/01/09 05:01:01;;;;;;;15.07;3.80;;;;;;;4.78;97.25;98866.84;5114485;28;20192;-75
2022/01/09 05:03:27;;;;;;;8.03;4.07;;;;;;;4.83;97.34;98869.25;5114851;28;20226;-76
2022/01/09 05:05:54;;;;;;;13.03;5.23;;;;;;;4.88;97.29;98875.91;5114567;28;20215;-75
2022/01/09 05:08:20;;;;;;;15.97;4.43;;;;;;;4.90;97.22;98881.00;5114904;28;20188;-75
2022/01/09 05:10:47;;;;;;;22.60;4.57;;;;;;;4.94;97.08;98890.31;5114543;28;20548;-75
2022/01/09 05:13:13;;;;;;;9.03;4.53;;;;;;;4.96;97.16;98893.69;5096086;28;20192;-75
2022/01/09 05:15:40;;;;;;;13.67;4.67;;;;;;;4.98;96.48;98895.28;5114506;28;20261;-76
2022/01/09 05:18:13;;;;;;;14.27;4.37;;;;;;;5.02;96.69;98916.72;5114527;28;20227;-76
2022/01/09 05:20:44;;;;;;;17.87;4.53;;;;;;;5.02;96.10;98916.72;5114149;28;20192;-76
2022/01/09 05:23:10;;;;;;;12.53;4.67;;;;;;;4.98;96.00;98920.38;5114612;28;20204;-75
2022/01/09 05:25:37;;;;;;;21.30;4.77;;;;;;;5.01;95.81;98942.75;5114001;28;20750;-76
2022/01/09 05:28:03;;;;;;;17.53;4.40;;;;;;;4.98;96.38;98943.72;5114521;28;20188;-76
2022/01/09 05:30:30;;;;;;;17.60;5.17;;;;;;;4.90;96.49;98941.47;5096035;28;20593;-76
2022/01/09 05:32:57;;;;;;;29.83;6.10;;;;;;;4.89;95.91;98957.94;5114223;28;20309;-76
2022/01/09 05:35:25;;;;;;;16.30;6.53;;;;;;;4.86;96.19;98965.03;5113829;28;20183;-76
2022/01/09 05:37:52;;;;;;;15.47;7.17;;;;;;;4.87;95.67;98966.72;5114163;28;20556;-76
2022/01/09 05:40:19;;;;;;;8.43;4.67;;;;;;;4.87;95.82;98970.16;5113917;28;20191;-76
2022/01/09 05:42:47;;;;;;;13.57;4.47;;;;;;;4.83;96.35;98980.72;5113818;28;20189;-76
2022/01/09 05:45:17;;;;;;;27.37;5.03;;;;;;;4.85;96.36;98978.91;5113801;28;20189;-75
2022/01/09 05:47:44;;;;;;;6.67;4.00;;;;;;;4.82;96.83;98984.22;5113782;28;20658;-76
2022/01/09 05:50:12;;;;;;;13.07;4.93;;;;;;;4.83;96.79;98998.88;5113752;28;20181;-75
2022/01/09 05:52:38;;;;;;;20.60;5.10;;;;;;;4.84;96.63;99003.97;5113725;28;20195;-75
2022/01/09 05:55:05;;;;;;;16.03;5.03;;;;;;;4.82;95.90;99002.38;5114001;28;20185;-75
2022/01/09 05:57:32;;;;;;;4.57;3.93;;;;;;;4.83;95.86;99004.06;5114193;28;20208;-74
2022/01/09 05:59:58;;;;;;;16.40;4.90;;;;;;;4.84;94.76;99000.56;5117977;28;20195;-75
2022/01/09 06:02:25;;;;;;;18.90;4.57;;;;;;;4.85;94.68;99002.22;5117903;28;20196;-76
2022/01/09 06:04:52;;;;;;;12.30;4.53;;;;;;;4.80;94.47;99012.81;5117734;28;20208;-76
2022/01/09 06:07:18;;;;;;;13.27;4.57;;;;;;;4.87;93.83;99014.25;5117788;28;20697;-75
2022/01/09 06:09:44;;;;;;;21.23;4.37;;;;;;;4.82;94.02;99031.75;5117764;28;20661;-76
2022/01/09 06:12:11;;;;;;;21.33;4.43;;;;;;;4.78;93.96;99032.78;5118261;28;20182;-75
2022/01/09 06:14:38;;;;;;;18.37;4.70;;;;;;;4.78;94.01;99039.72;5117673;28;20181;-75
2022/01/09 06:17:05;;;;;;;18.70;4.00;;;;;;;4.78;93.37;99050.94;5117695;28;20287;-76
2022/01/09 06:19:31;;;;;;;18.93;5.27;;;;;;;4.78;93.31;99060.47;5117533;28;20594;-76
2022/01/09 06:21:58;;;;;;;4.37;3.97;;;;;;;4.81;92.83;99049.97;5117501;28;20664;-75
2022/01/09 06:24:24;;;;;;;26.50;4.43;;;;;;;4.76;93.18;99059.69;5117412;28;20215;-75
2022/01/09 06:26:51;;;;;;;17.97;4.00;;;;;;;4.80;92.41;99071.63;5117697;28;20818;-75
2022/01/09 06:29:19;;;;;;;25.43;5.40;;;;;;;4.77;92.74;99074.34;5117945;28;20661;-75
2022/01/09 06:31:50;;;;;;;17.43;4.67;;;;;;;4.79;92.67;99085.50;5117677;28;20262;-76
2022/01/09 06:34:16;;;;;;;10.27;4.13;;;;;;;4.75;92.20;99094.31;5117296;28;20184;-76
2022/01/09 06:36:43;;;;;;;8.53;3.57;;;;;;;4.76;91.83;99096.00;5117259;28;20209;-76
2022/01/09 06:39:09;;;;;;;21.73;4.03;;;;;;;4.71;91.99;99106.53;5117211;28;20191;-75
2022/01/09 06:41:36;;;;;;;4.27;3.50;;;;;;;4.70;91.62;99108.28;5117094;28;20188;-75
2022/01/09 06:44:03;;;;;;;5.53;3.53;;;;;;;4.67;91.49;99117.97;5117022;28;20211;-76
2022/01/09 06:46:29;;;;;;;7.20;3.83;;;;;;;4.74;91.09;99118.56;5116996;28;20692;-76
2022/01/09 06:48:56;;;;;;;15.60;3.70;;;;;;;4.74;90.86;99129.75;5117273;28;20665;-75
2022/01/09 06:51:22;;;;;;;10.70;4.73;;;;;;;4.74;91.19;99136.69;5117232;28;20183;-75
2022/01/09 06:53:49;;;;;;;8.40;4.17;;;;;;;4.70;90.94;99147.19;5116970;28;20596;-75
2022/01/09 06:56:15;;;;;;;12.87;4.23;;;;;;;4.67;90.80;99142.16;5116834;28;20213;-75
2022/01/09 06:58:42;;;;;;;11.03;4.53;;;;;;;4.67;91.14;99149.09;5117380;28;20199;-75
2022/01/09 07:01:08;;;;;;;3.97;3.80;;;;;;;4.65;90.54;99162.13;5098538;28;20672;-76
2022/01/09 07:03:34;;;;;;;9.10;4.47;;;;;;;4.65;90.90;99163.88;5116668;28;20245;-75
2022/01/09 07:06:01;;;;;;;4.53;4.00;;;;;;;4.63;90.53;99174.28;5116977;28;20208;-76
2022/01/09 07:08:29;;;;;;;3.53;3.33;;;;;;;4.64;90.67;99177.72;5116633;28;20188;-76
2022/01/09 07:10:55;;;;;;;10.37;5.50;;;;;;;4.62;90.40;99187.31;5115548;28;20192;-77
2022/01/09 07:13:22;;;;;;;5.93;3.90;;;;;;;4.62;90.70;99192.50;5116550;28;20196;-75
2022/01/09 07:15:48;;;;;;;5.87;3.60;;;;;;;4.56;90.19;99198.75;5116930;28;20211;-75
2022/01/09 07:18:15;;;;;;;6.50;3.90;;;;;;;4.62;90.39;99214.06;5116947;28;20638;-76
2022/01/09 07:20:41;;;;;;;20.93;3.53;;;;;;;4.60;89.55;99217.63;5116307;28;20196;-75
2022/01/09 07:23:08;;;;;;;7.97;3.63;;;;;;;4.59;89.66;99214.19;5116428;28;20180;-75
2022/01/09 07:25:34;;;;;;;7.97;3.57;;;;;;;4.56;89.73;99235.03;5116176;28;20227;-75
2022/01/09 07:28:02;;;;;;;16.60;4.90;;;;;;;4.53;89.56;99227.41;5116422;28;20199;-75
2022/01/09 07:30:29;;;;;;;3.80;3.63;;;;;;;4.49;89.19;99232.78;5116258;28;20188;-75
2022/01/09 07:32:56;;;;;;;3.57;3.33;;;;;;;4.48;89.70;99241.44;5116432;28;20591;-75
2022/01/09 07:35:23;;;;;;;4.00;3.30;;;;;;;4.47;89.02;99252.72;5116353;28;20549;-75
2022/01/09 07:37:50;;;;;;;12.00;3.83;;;;;;;4.50;89.21;99250.88;5116377;28;20672;-75
2022/01/09 07:40:18;;;;;;;10.77;3.70;;;;;;;4.50;89.26;99261.25;5116253;28;20192;-75
2022/01/09 07:42:46;;;;;;;4.27;3.13;;;;;;;4.50;89.24;99274.19;5116006;28;20172;-75
2022/01/09 07:45:14;;;;;;;14.60;4.00;;;;;;;4.49;89.24;99275.06;5115816;28;20687;-75
2022/01/09 07:47:41;;;;;;;4.33;3.77;;;;;;;4.47;89.36;99274.28;5116477;28;20216;-75
2022/01/09 07:50:10;;;;;;;10.13;3.73;;;;;;;4.48;89.53;99280.31;5116430;28;20259;-75
2022/01/09 07:52:38;;;;;;;12.37;4.00;;;;;;;4.49;89.25;99285.44;5115823;28;20178;-75
2022/01/09 07:55:06;;;;;;;14.00;4.20;;;;;;;4.47;89.83;99300.22;5116383;28;20520;-75
2022/01/09 07:57:33;;;;;;;8.80;3.57;;;;;;;4.46;89.83;99295.94;5115933;28;20676;-74
2022/01/09 08:00:04;;;;;;;8.70;4.13;;;;;;;4.45;89.80;99301.19;5115759;28;20172;-76
2022/01/09 08:02:38;;;;;;;5.53;3.57;;;;;;;4.41;89.98;99311.66;5115636;28;20204;-75
2022/01/09 08:05:05;;;;;;;11.03;4.03;;;;;;;4.36;90.30;99312.75;5115558;28;20591;-75
2022/01/09 08:07:32;;;;;;;17.83;4.10;;;;;;;4.35;90.21;99318.81;5115504;28;20209;-75
2022/01/09 08:09:58;;;;;;;6.30;2.83;;;;;;;4.36;90.45;99330.91;5115489;28;20187;-75
2022/01/09 08:12:25;;;;;;;4.17;3.40;;;;;;;4.35;90.32;99324.84;5115440;28;20174;-75
2022/01/09 08:14:51;;;;;;;5.57;3.03;;;;;;;4.33;90.51;99333.59;5097335;28;20226;-75
2022/01/09 08:17:18;;;;;;;5.37;3.17;;;;;;;4.37;90.65;99332.59;5115814;28;20216;-75
2022/01/09 08:19:44;;;;;;;6.67;3.60;;;;;;;4.39;90.03;99348.91;5115355;28;20190;-75
2022/01/09 08:22:11;;;;;;;16.93;4.33;;;;;;;4.36;90.41;99349.03;5115409;28;20575;-75
2022/01/09 08:24:39;;;;;;;14.53;3.93;;;;;;;4.37;89.95;99350.72;5115107;28;20265;-75
2022/01/09 08:27:06;;;;;;;4.80;3.07;;;;;;;4.36;90.21;99349.88;5115177;28;20571;-75
2022/01/09 08:29:33;;;;;;;10.17;4.00;;;;;;;4.36;90.45;99357.66;5115598;28;20204;-76
2022/01/09 08:32:00;;;;;;;10.03;3.97;;;;;;;4.28;90.46;99354.47;5115053;28;20188;-75
2022/01/09 08:34:27;;;;;;;4.17;3.80;;;;;;;4.31;90.20;99356.13;5114951;28;20198;-75
2022/01/09 08:36:54;;;;;;;5.27;4.23;;;;;;;4.33;90.35;99362.09;5114913;28;20278;-75
2022/01/09 08:39:20;;;;;;;8.93;3.50;;;;;;;4.34;90.49;99363.78;5114903;28;20192;-75
2022/01/09 08:41:46;;;;;;;5.47;3.67;;;;;;;4.26;90.78;99377.00;5096894;28;20187;-75
2022/01/09 08:44:13;;;;;;;4.57;4.00;;;;;;;4.32;90.79;99381.13;5114985;28;20240;-75
2022/01/09 08:46:40;;;;;;;11.00;3.67;;;;;;;4.28;90.52;99389.91;5115108;28;20207;-75
2022/01/09 08:49:06;;;;;;;6.97;4.20;;;;;;;4.31;90.36;99389.81;5114719;28;20176;-75
2022/01/09 08:51:33;;;;;;;7.37;3.90;;;;;;;4.30;90.13;99388.97;5114637;28;20195;-75
2022/01/09 08:53:59;;;;;;;7.80;4.03;;;;;;;4.25;90.06;99395.22;5114628;28;20184;-75
2022/01/09 08:56:27;;;;;;;6.20;4.10;;;;;;;4.28;89.94;99384.72;5114523;28;20225;-75
2022/01/09 08:58:55;;;;;;;10.13;4.20;;;;;;;4.31;90.17;99395.84;5114414;28;20185;-74
2022/01/09 09:01:41;;;;;;;14.53;3.80;;;;;;;4.36;90.37;99404.28;5114775;28;20180;-74
2022/01/09 09:04:09;;;;;;;8.20;4.13;;;;;;;4.32;89.87;99404.44;5114573;28;20629;-74
2022/01/09 09:06:36;;;;;;;7.10;3.37;;;;;;;4.40;89.54;99410.19;5114838;28;20300;-74
2022/01/09 09:09:02;;;;;;;7.83;4.97;;;;;;;4.32;89.55;99412.22;5114682;28;20198;-75
2022/01/09 09:11:29;;;;;;;6.70;3.90;;;;;;;4.31;89.50;99416.56;5114241;28;20173;-74
2022/01/09 09:13:55;;;;;;;7.10;4.03;;;;;;;4.36;89.53;99419.00;5114263;28;20177;-74
2022/01/09 09:16:22;;;;;;;9.67;4.10;;;;;;;4.35;89.07;99430.22;5114781;28;20701;-74
2022/01/09 09:18:50;;;;;;;3.47;3.27;;;;;;;4.38;88.84;99445.69;5114153;28;20186;-74
2022/01/09 09:21:17;;;;;;;10.93;3.70;;;;;;;4.37;89.12;99449.19;5114269;28;20188;-74
2022/01/09 09:23:44;;;;;;;16.40;3.17;;;;;;;4.36;88.91;99453.53;5113807;28;20661;-74
2022/01/09 09:26:11;;;;;;;21.13;3.93;;;;;;;4.39;89.28;99457.75;5114193;28;20203;-74
2022/01/09 09:28:38;;;;;;;8.60;4.13;;;;;;;4.41;89.22;99461.09;5114598;28;20185;-73
2022/01/09 09:31:05;;;;;;;4.63;4.30;;;;;;;4.41;88.36;99453.34;5113974;28;20187;-74
2022/01/09 09:33:31;;;;;;;3.37;2.77;;;;;;;4.35;88.46;99464.75;5113243;28;20189;-74
2022/01/09 09:35:59;;;;;;;12.53;4.07;;;;;;;4.37;88.59;99465.56;5113962;28;20257;-74
2022/01/09 09:38:26;;;;;;;5.20;3.83;;;;;;;4.41;88.32;99468.88;5113912;28;20600;-75
2022/01/09 09:40:53;;;;;;;5.23;3.50;;;;;;;4.48;88.28;99475.53;5113804;28;20189;-74
2022/01/09 09:43:21;;;;;;;4.00;3.63;;;;;;;4.51;88.63;99485.81;5114077;28;20191;-74
2022/01/09 09:45:48;;;;;;;9.47;3.33;;;;;;;4.47;88.93;99480.78;5114088;28;20223;-74
2022/01/09 09:48:15;;;;;;;8.47;4.07;;;;;;;4.53;88.87;99480.56;5113758;28;20236;-74
2022/01/09 09:50:42;;;;;;;8.07;4.17;;;;;;;4.46;89.18;99490.31;5113914;28;20200;-74
2022/01/09 09:53:08;;;;;;;13.70;5.27;;;;;;;4.52;88.55;99489.25;5113968;28;20582;-73
2022/01/09 09:55:35;;;;;;;10.27;3.73;;;;;;;4.56;88.36;99494.22;5113635;28;20265;-75
2022/01/09 09:58:01;;;;;;;4.87;4.13;;;;;;;4.59;88.55;99491.56;5113709;28;20266;-74
2022/01/09 10:00:28;;;;;;;5.10;3.87;;;;;;;4.61;88.51;99499.25;5113918;28;20633;-73
2022/01/09 10:02:57;;;;;;;7.50;3.87;;;;;;;4.73;88.77;99505.75;5113900;28;20193;-74
2022/01/09 10:05:35;;;;;;;11.87;4.60;;;;;;;4.76;88.79;99501.28;5113729;28;20196;-74
2022/01/09 10:08:15;;;;;;;7.90;4.27;;;;;;;4.67;88.72;99507.66;5113912;28;20173;-74
2022/01/09 10:10:42;;;;;;;6.53;4.23;;;;;;;4.72;89.34;99514.44;5114175;28;20181;-74
2022/01/09 10:13:17;;;;;;;5.50;3.60;;;;;;;4.79;88.85;99508.13;5095868;28;20193;-74
2022/01/09 10:15:58;;;;;;;5.77;4.07;;;;;;;4.77;88.66;99512.50;5113660;28;20261;-73
2022/01/09 10:18:56;;;;;;;7.90;4.00;;;;;;;4.73;88.31;99518.72;5113777;28;20173;-73
2022/01/09 10:21:25;;;;;;;7.40;3.20;;;;;;;4.72;88.57;99525.66;5079308;28;20221;-73
2022/01/09 10:24:07;;;;;;;9.93;4.27;;;;;;;4.70;88.74;99528.28;5113541;28;20178;-73
2022/01/09 10:26:47;;;;;;;9.63;4.40;;;;;;;4.79;88.87;99526.28;5113737;28;20623;-74
2022/01/09 10:29:14;;;;;;;5.50;3.20;;;;;;;4.79;88.12;99528.88;5113707;28;20218;-73
2022/01/09 10:31:45;;;;;;;5.67;3.50;;;;;;;4.80;88.57;99531.41;5113298;28;20264;-73
2022/01/09 10:34:16;;;;;;;20.13;4.63;;;;;;;4.82;88.46;99531.34;5114183;28;20549;-74
2022/01/09 10:36:47;;;;;;;8.87;4.77;;;;;;;4.83;88.09;99527.84;5113512;28;20208;-73
2022/01/09 10:39:17;;;;;;;13.93;4.57;;;;;;;4.81;87.49;99540.88;5113705;28;20211;-74
2022/01/09 10:42:04;;;;;;;19.07;5.40;;;;;;;4.80;88.02;99546.97;5113247;28;20239;-74
2022/01/09 10:44:37;;;;;;;9.67;5.83;;;;;;;4.84;88.15;99538.16;5115899;28;20275;-74
2022/01/09 10:47:11;;;;;;;16.03;4.87;;;;;;;4.91;88.19;99546.56;5117482;28;20204;-73
2022/01/09 10:49:57;;;;;;;7.90;4.73;;;;;;;4.96;87.38;99547.22;5117522;28;20181;-73
2022/01/09 10:52:27;;;;;;;10.17;4.83;;;;;;;4.90;87.65;99555.25;5117235;28;20219;-74
2022/01/09 10:54:57;;;;;;;5.00;4.57;;;;;;;4.91;87.96;99564.69;5116797;28;20192;-73
2022/01/09 10:57:26;;;;;;;11.73;5.03;;;;;;;4.92;87.56;99568.97;5117027;28;20213;-74
2022/01/09 10:59:53;;;;;;;11.10;5.07;;;;;;;4.93;87.17;99556.00;5116773;28;20184;-74
2022/01/09 11:02:19;;;;;;;11.13;5.30;;;;;;;5.00;87.71;99566.09;5116825;28;20181;-73
2022/01/09 11:04:48;;;;;;;9.50;5.20;;;;;;;4.97;86.47;99572.25;5116592;28;20253;-73
2022/01/09 11:07:15;;;;;;;5.30;4.50;;;;;;;5.08;86.62;99567.53;5116638;28;20274;-73
2022/01/09 11:09:46;;;;;;;13.53;4.53;;;;;;;4.93;86.57;99570.69;5116607;28;20189;-74
2022/01/09 11:12:16;;;;;;;5.03;4.00;;;;;;;5.01;86.17;99573.84;5116796;28;20177;-74
2022/01/09 11:14:43;;;;;;;6.33;3.53;;;;;;;5.06;85.89;99587.47;5116790;28;20173;-73
2022/01/09 11:17:11;;;;;;;6.80;3.50;;;;;;;5.09;86.02;99586.53;5116455;28;20287;-74
2022/01/09 11:19:38;;;;;;;9.80;4.73;;;;;;;5.03;86.20;99587.59;5116619;28;20587;-74
2022/01/09 11:22:07;;;;;;;11.23;4.37;;;;;;;5.06;86.31;99594.41;5116666;28;20180;-73
2022/01/09 11:24:52;;;;;;;4.87;4.47;;;;;;;5.07;87.10;99603.88;5098342;28;20719;-73
2022/01/09 11:27:56;;;;;;;11.83;4.87;;;;;;;5.05;86.72;99603.09;5116541;28;20213;-74
2022/01/09 11:30:41;;;;;;;15.30;6.20;;;;;;;5.29;86.70;99612.59;5116189;28;20180;-73
2022/01/09 11:33:37;;;;;;;8.70;6.53;;;;;;;5.17;86.72;99616.47;5116496;28;20173;-73
2022/01/09 11:36:16;;;;;;;15.27;8.97;;;;;;;5.22;86.63;99619.75;5116108;28;20257;-73
2022/01/09 11:38:57;;;;;;;18.07;8.07;;;;;;;5.19;87.58;99625.03;5116607;28;20330;-73
2022/01/09 11:41:27;;;;;;;9.20;6.57;;;;;;;5.26;86.91;99623.06;5116258;28;20193;-73
2022/01/09 11:44:06;;;;;;;6.77;6.30;;;;;;;5.14;87.13;99623.50;5116053;28;20189;-74
2022/01/09 11:46:55;;;;;;;7.50;6.90;;;;;;;5.07;86.92;99630.72;5116131;28;20220;-74